Time;durP1;ratioP1;P1;durP2;ratioP2;P2;SDS_P1;SDS_P2;PMS_P1;PMS_P2;Temp;Humidity;BMP_temperature;BMP_pressure;BME280_temperature;BME280_humidity;BME280_pressure;Samples;Min_cycle;Max_cycle;Signal;HPM_P1;HPM_P2
2022/05/13 00:00:26;;;;;;;7.23;2.57;;;12.80;99.90;;;;;;5058702;28;20451;-80
2022/05/13 00:02:53;;;;;;;6.77;3.37;;;12.90;99.90;;;;;;5064200;28;20483;-79
2022/05/13 00:05:20;;;;;;;5.23;2.63;;;12.90;99.90;;;;;;5063122;28;20443;-80
2022/05/13 00:07:48;;;;;;;5.67;2.20;;;13.00;99.90;;;;;;5064016;28;20451;-79
2022/05/13 00:10:15;;;;;;;4.50;2.37;;;13.00;99.90;;;;;;5062764;28;20478;-79
2022/05/13 00:12:42;;;;;;;5.10;2.10;;;13.10;99.90;;;;;;5058938;28;20479;-80
2022/05/13 00:15:12;;;;;;;5.73;2.40;;;13.10;99.90;;;;;;5056719;28;20527;-81
2022/05/13 00:17:40;;;;;;;3.80;2.30;;;13.10;99.90;;;;;;5056791;28;20457;-81
2022/05/13 00:20:08;;;;;;;6.47;2.00;;;13.20;99.90;;;;;;5056086;28;20469;-81
2022/05/13 00:22:35;;;;;;;4.60;2.43;;;13.30;99.90;;;;;;5056227;28;20954;-80
2022/05/13 00:25:03;;;;;;;4.47;2.40;;;13.30;99.90;;;;;;5056931;28;20490;-81
2022/05/13 00:27:30;;;;;;;7.00;2.50;;;13.30;99.90;;;;;;5057979;28;20459;-81
2022/05/13 00:29:58;;;;;;;4.93;2.33;;;13.20;99.90;;;;;;5057225;28;20517;-81
2022/05/13 00:32:24;;;;;;;8.40;2.17;;;13.10;99.90;;;;;;5057651;28;20506;-80
2022/05/13 00:34:51;;;;;;;5.73;2.20;;;13.00;99.90;;;;;;5057095;28;20477;-80
2022/05/13 00:37:18;;;;;;;3.97;1.77;;;12.90;99.90;;;;;;5059286;28;20457;-80
2022/05/13 00:39:46;;;;;;;5.77;2.70;;;12.80;99.90;;;;;;5057265;28;20504;-81
2022/05/13 00:42:17;;;;;;;2.93;2.10;;;12.80;99.90;;;;;;5058060;28;20484;-81
2022/05/13 00:44:45;;;;;;;4.57;1.80;;;12.70;99.90;;;;;;5057928;28;20455;-80
2022/05/13 00:47:13;;;;;;;5.50;1.87;;;12.70;99.90;;;;;;5057296;28;20477;-81
2022/05/13 00:49:40;;;;;;;7.03;2.10;;;12.60;99.90;;;;;;5058176;28;20485;-81
2022/05/13 00:52:10;;;;;;;6.70;2.27;;;12.70;99.90;;;;;;5038724;28;20574;-81
2022/05/13 00:54:38;;;;;;;5.47;1.47;;;12.80;99.90;;;;;;5038557;28;20464;-80
2022/05/13 00:57:06;;;;;;;4.00;2.13;;;12.80;99.90;;;;;;5058236;28;20486;-80
2022/05/13 00:59:38;;;;;;;6.40;2.07;;;12.80;99.90;;;;;;5057918;28;20465;-80
2022/05/13 01:02:05;;;;;;;3.30;1.53;;;12.80;99.90;;;;;;5058791;28;20493;-81
2022/05/13 01:04:34;;;;;;;2.80;1.47;;;12.80;99.90;;;;;;5057368;28;20460;-81
2022/05/13 01:07:06;;;;;;;8.13;2.13;;;12.80;99.90;;;;;;5059345;28;20465;-80
2022/05/13 01:09:38;;;;;;;5.70;1.90;;;12.80;99.90;;;;;;5060082;28;20478;-81
2022/05/13 01:12:10;;;;;;;5.03;1.87;;;12.70;99.90;;;;;;5044984;28;20534;-81
2022/05/13 01:14:42;;;;;;;4.63;2.07;;;12.70;99.90;;;;;;5087586;22;20502;-77
2022/05/13 01:20:11;;;;;;;6.80;1.90;;;12.60;99.90;;;;;;5074153;28;20514;-77
2022/05/13 01:22:44;;;;;;;4.23;1.60;;;12.60;99.90;;;;;;5074959;28;21124;-76
2022/05/13 01:25:13;;;;;;;3.60;1.87;;;12.50;99.90;;;;;;5055209;28;20825;-76
2022/05/13 01:27:41;;;;;;;6.23;2.00;;;12.40;99.90;;;;;;5054932;28;20585;-76
2022/05/13 01:30:10;;;;;;;2.83;1.47;;;12.30;99.90;;;;;;5054982;28;20509;-77
2022/05/13 01:32:37;;;;;;;4.57;1.60;;;12.30;99.90;;;;;;5054467;28;20459;-77
2022/05/13 01:35:05;;;;;;;6.57;1.60;;;12.20;99.90;;;;;;5054139;28;20459;-76
2022/05/13 01:37:32;;;;;;;4.33;1.50;;;12.10;99.90;;;;;;5054118;28;20462;-77
2022/05/13 01:40:01;;;;;;;8.27;2.07;;;12.00;99.90;;;;;;5054630;28;20448;-77
2022/05/13 01:42:28;;;;;;;4.43;2.00;;;12.00;99.90;;;;;;5054484;28;21262;-77
2022/05/13 01:44:55;;;;;;;4.27;1.50;;;11.90;99.90;;;;;;5054898;28;20477;-77
2022/05/13 01:47:22;;;;;;;3.27;1.40;;;11.90;99.90;;;;;;5054819;28;20450;-76
2022/05/13 01:49:48;;;;;;;3.63;1.37;;;11.90;99.90;;;;;;5054347;28;20456;-76
2022/05/13 01:52:15;;;;;;;3.97;1.63;;;11.90;99.90;;;;;;5054808;28;20464;-77
2022/05/13 01:54:42;;;;;;;8.80;2.30;;;11.80;99.90;;;;;;5055110;28;20468;-77
2022/05/13 01:57:10;;;;;;;4.17;1.70;;;11.90;99.90;;;;;;5054428;28;20486;-77
2022/05/13 01:59:37;;;;;;;4.90;1.77;;;11.80;99.90;;;;;;5055333;28;20457;-77
2022/05/13 02:02:04;;;;;;;4.40;1.60;;;11.80;99.90;;;;;;5055626;28;20466;-77
2022/05/13 02:04:31;;;;;;;5.43;2.27;;;11.80;99.90;;;;;;5055154;28;20468;-77
2022/05/13 02:06:58;;;;;;;3.67;1.60;;;11.80;99.90;;;;;;5054671;28;20951;-75
2022/05/13 02:09:25;;;;;;;6.87;1.90;;;11.70;99.90;;;;;;5053881;28;20457;-76
2022/05/13 02:11:52;;;;;;;4.57;1.83;;;11.70;99.90;;;;;;5053848;28;20507;-77
2022/05/13 02:14:21;;;;;;;6.00;1.90;;;11.70;99.90;;;;;;5054052;28;20483;-76
2022/05/13 02:16:47;;;;;;;4.20;1.87;;;11.70;99.90;;;;;;5053870;28;20840;-76
2022/05/13 02:19:15;;;;;;;3.17;1.73;;;11.60;99.90;;;;;;5052825;28;20462;-77
2022/05/13 02:21:42;;;;;;;4.90;2.50;;;11.60;99.90;;;;;;5053877;28;20494;-77
2022/05/13 02:24:09;;;;;;;3.70;1.97;;;11.60;99.90;;;;;;5053785;28;20469;-77
2022/05/13 02:26:36;;;;;;;6.83;2.00;;;11.50;99.90;;;;;;5054003;28;20465;-76
2022/05/13 02:29:03;;;;;;;4.63;1.70;;;11.50;99.90;;;;;;5053672;28;20474;-76
2022/05/13 02:31:32;;;;;;;4.37;2.10;;;11.40;99.90;;;;;;5053757;28;20486;-77
2022/05/13 02:33:59;;;;;;;6.83;2.13;;;11.40;99.90;;;;;;5053900;28;20475;-77
2022/05/13 02:36:26;;;;;;;3.70;2.00;;;11.40;99.90;;;;;;5053007;28;20545;-76
2022/05/13 02:38:53;;;;;;;4.70;1.90;;;11.40;99.90;;;;;;5053795;28;20456;-77
2022/05/13 02:41:20;;;;;;;6.10;1.70;;;11.30;99.90;;;;;;5053577;28;20460;-77
2022/05/13 02:43:53;;;;;;;4.70;1.93;;;11.30;99.90;;;;;;5053333;28;20474;-77
2022/05/13 02:46:23;;;;;;;4.20;1.63;;;11.30;99.90;;;;;;5053147;28;20445;-77
2022/05/13 02:48:51;;;;;;;5.20;1.83;;;11.20;99.90;;;;;;5053323;28;20461;-76
2022/05/13 02:51:19;;;;;;;3.60;1.50;;;11.20;99.90;;;;;;5053203;28;20453;-77
2022/05/13 02:53:46;;;;;;;2.57;1.47;;;11.20;99.90;;;;;;5053649;28;20468;-76
2022/05/13 02:56:13;;;;;;;7.80;1.60;;;11.10;99.90;;;;;;5053219;28;20483;-77
2022/05/13 02:58:41;;;;;;;3.60;1.70;;;11.10;99.90;;;;;;5052835;28;20449;-76
2022/05/13 03:01:09;;;;;;;3.30;1.87;;;11.10;99.90;;;;;;5053227;28;20551;-76
2022/05/13 03:03:39;;;;;;;6.13;2.23;;;11.00;99.90;;;;;;5052888;28;20473;-76
2022/05/13 03:06:07;;;;;;;4.70;2.13;;;11.00;99.90;;;;;;5055598;28;20455;-77
2022/05/13 03:08:34;;;;;;;6.63;1.90;;;11.00;99.90;;;;;;5053974;28;20825;-76
2022/05/13 03:11:02;;;;;;;5.37;2.23;;;10.90;99.90;;;;;;5054088;28;20463;-76
2022/05/13 03:13:29;;;;;;;5.43;1.73;;;10.90;99.90;;;;;;5048553;28;20489;-77
2022/05/13 03:16:01;;;;;;;5.10;1.83;;;10.90;99.90;;;;;;5054983;28;20494;-77
2022/05/13 03:18:28;;;;;;;5.50;2.00;;;10.90;99.90;;;;;;5041003;28;20452;-78
2022/05/13 03:20:55;;;;;;;5.03;1.70;;;10.80;99.90;;;;;;5054088;28;20888;-78
2022/05/13 03:23:23;;;;;;;7.17;2.40;;;10.80;99.90;;;;;;5053488;28;20477;-77
2022/05/13 03:25:50;;;;;;;6.63;2.83;;;10.80;99.90;;;;;;5054461;28;20464;-78
2022/05/13 03:28:17;;;;;;;5.47;1.93;;;10.80;99.90;;;;;;5053810;28;20460;-79
2022/05/13 03:30:44;;;;;;;8.70;2.67;;;11.80;99.90;;;;;;5045745;28;20453;-78
2022/05/13 03:33:11;;;;;;;7.07;3.10;;;11.60;99.90;;;;;;5034059;28;20870;-79
2022/05/13 03:35:38;;;;;;;7.47;2.63;;;11.50;99.90;;;;;;5034021;28;20496;-78
2022/05/13 03:38:05;;;;;;;4.63;2.43;;;11.40;99.90;;;;;;5033804;28;20457;-78
2022/05/13 03:40:33;;;;;;;4.40;2.00;;;11.30;99.90;;;;;;5033691;28;20448;-77
2022/05/13 03:42:59;;;;;;;5.47;2.17;;;11.30;99.90;;;;;;5049917;28;20472;-78
2022/05/13 03:45:27;;;;;;;6.77;2.00;;;11.30;99.90;;;;;;5054646;28;20448;-77
2022/05/13 03:47:54;;;;;;;3.80;1.73;;;11.20;99.90;;;;;;5054592;28;20453;-77
2022/05/13 03:50:21;;;;;;;6.57;2.10;;;11.20;99.90;;;;;;5054618;28;20480;-76
2022/05/13 03:52:47;;;;;;;5.07;1.70;;;11.20;99.90;;;;;;5054992;28;20542;-76
2022/05/13 03:55:14;;;;;;;7.43;2.13;;;11.20;99.90;;;;;;5054868;28;20443;-76
2022/05/13 03:57:43;;;;;;;6.40;2.23;;;11.10;99.90;;;;;;5054389;28;20480;-76
2022/05/13 04:00:11;;;;;;;5.03;1.90;;;11.10;99.90;;;;;;5054312;28;20452;-76
2022/05/13 04:02:38;;;;;;;6.30;2.03;;;11.10;99.90;;;;;;5055445;28;20529;-77
2022/05/13 04:10:35;;;;;;;13.27;3.20;;;11.20;99.90;;;;;;5054220;28;20435;-76
2022/05/13 04:16:07;;;;;;;7.17;2.93;;;11.20;99.90;;;;;;5053884;28;20539;-77
2022/05/13 04:18:36;;;;;;;6.27;2.53;;;11.20;99.90;;;;;;5054404;28;20439;-76
2022/05/13 04:21:04;;;;;;;4.07;2.20;;;11.20;99.90;;;;;;5051823;28;20455;-77
2022/05/13 04:23:32;;;;;;;12.23;2.53;;;11.30;99.90;;;;;;5053876;28;20530;-76
2022/05/13 04:25:59;;;;;;;5.67;2.60;;;11.30;99.90;;;;;;5053832;28;20447;-76
2022/05/13 04:28:27;;;;;;;5.30;2.20;;;11.20;99.90;;;;;;5053918;28;20948;-75
2022/05/13 04:30:54;;;;;;;4.57;2.07;;;11.20;99.90;;;;;;5053584;28;20463;-79
2022/05/13 04:33:21;;;;;;;12.57;3.50;;;11.20;99.90;;;;;;5047451;28;20476;-78
2022/05/13 04:35:48;;;;;;;4.27;2.13;;;11.30;99.90;;;;;;5043555;28;20571;-76
2022/05/13 04:38:14;;;;;;;5.23;2.47;;;11.30;99.90;;;;;;5049745;28;20492;-77
2022/05/13 04:40:41;;;;;;;7.13;3.10;;;11.40;99.90;;;;;;5052769;28;20457;-77
2022/05/13 04:43:07;;;;;;;5.73;2.40;;;11.60;99.90;;;;;;5053387;28;20544;-79
2022/05/13 04:45:36;;;;;;;5.57;2.10;;;11.70;99.90;;;;;;5051675;28;20457;-77
2022/05/13 04:48:18;;;;;;;5.93;2.00;;;12.00;99.90;;;;;;5052283;28;20448;-77
2022/05/13 04:50:50;;;;;;;6.07;1.83;;;12.30;99.90;;;;;;5050570;28;20831;-76
2022/05/13 04:53:21;;;;;;;3.50;2.50;;;12.50;99.90;;;;;;5050513;28;20588;-79
2022/05/13 04:55:49;;;;;;;6.53;2.47;;;12.50;99.90;;;;;;5046292;28;20530;-78
2022/05/13 04:58:17;;;;;;;5.40;1.80;;;12.50;99.90;;;;;;5049937;28;20494;-78
2022/05/13 05:00:46;;;;;;;5.20;1.77;;;12.60;99.90;;;;;;5051597;28;20526;-76
2022/05/13 05:03:13;;;;;;;4.77;1.80;;;12.40;99.90;;;;;;5052377;28;20490;-77
2022/05/13 05:05:42;;;;;;;8.17;3.63;;;12.30;99.90;;;;;;5053680;28;20460;-78
2022/05/13 05:08:09;;;;;;;3.70;1.77;;;12.30;99.90;;;;;;5048034;28;20452;-78
2022/05/13 05:10:36;;;;;;;8.83;2.40;;;12.50;99.90;;;;;;5049962;28;20456;-77
2022/05/13 05:13:03;;;;;;;4.93;1.70;;;12.70;99.90;;;;;;5048199;28;20488;-79
2022/05/13 05:15:30;;;;;;;5.90;2.20;;;12.80;99.90;;;;;;5043002;28;20451;-78
2022/05/13 05:17:59;;;;;;;7.10;3.37;;;12.70;99.90;;;;;;5043248;28;20488;-77
2022/05/13 05:20:26;;;;;;;9.57;3.80;;;12.80;99.90;;;;;;5046898;28;20459;-77
2022/05/13 05:22:53;;;;;;;11.30;3.33;;;12.70;99.90;;;;;;5043531;28;20464;-77
2022/05/13 05:25:22;;;;;;;5.70;2.83;;;12.80;99.90;;;;;;5042248;28;20452;-76
2022/05/13 05:27:49;;;;;;;9.30;2.77;;;12.80;99.90;;;;;;5046469;28;20446;-76
2022/05/13 05:30:17;;;;;;;8.60;3.07;;;12.90;99.90;;;;;;5041172;28;20456;-77
2022/05/13 05:32:47;;;;;;;9.30;2.90;;;13.00;99.90;;;;;;5044546;28;20450;-77
2022/05/13 05:35:17;;;;;;;11.03;3.13;;;13.00;99.90;;;;;;5043516;28;20470;-77
2022/05/13 05:37:44;;;;;;;6.07;2.63;;;13.10;99.90;;;;;;5046775;28;20489;-77
2022/05/13 05:40:12;;;;;;;5.90;2.40;;;13.30;99.90;;;;;;5046873;28;20467;-76
2022/05/13 05:42:40;;;;;;;8.23;2.97;;;13.30;99.90;;;;;;5042155;28;20454;-77
2022/05/13 05:45:10;;;;;;;8.80;2.83;;;13.20;99.90;;;;;;5043956;28;20921;-79
2022/05/13 05:47:37;;;;;;;6.97;2.63;;;13.10;99.90;;;;;;5041370;28;20455;-76
2022/05/13 05:50:06;;;;;;;5.50;2.37;;;13.10;99.90;;;;;;5045041;28;20458;-78
2022/05/13 05:52:34;;;;;;;10.40;3.40;;;13.10;99.90;;;;;;5047137;28;20463;-78
2022/05/13 05:57:57;;;;;;;7.67;3.00;;;13.20;99.90;;;;;;5046711;28;20471;-76
2022/05/13 06:00:24;;;;;;;10.63;2.50;;;13.20;99.90;;;;;;5045762;28;20534;-78
2022/05/13 06:02:51;;;;;;;7.70;3.40;;;13.10;99.90;;;;;;5048947;28;20550;-77
2022/05/13 06:05:18;;;;;;;5.63;2.87;;;13.10;99.90;;;;;;5041672;28;20458;-77
2022/05/13 06:07:46;;;;;;;7.63;3.30;;;13.10;99.90;;;;;;5041941;28;20461;-78
2022/05/13 06:10:14;;;;;;;5.83;2.17;;;13.00;99.90;;;;;;5052523;28;20452;-77
2022/05/13 06:12:44;;;;;;;7.13;3.20;;;13.00;99.90;;;;;;5050418;28;20456;-78
2022/05/13 06:15:12;;;;;;;11.67;3.30;;;13.00;99.90;;;;;;5041224;28;20448;-78
2022/05/13 06:17:44;;;;;;;7.53;2.87;;;13.00;99.90;;;;;;5052173;28;20504;-77
2022/05/13 06:20:12;;;;;;;8.13;3.30;;;12.90;99.90;;;;;;5043263;28;20460;-76
2022/05/13 06:22:41;;;;;;;9.43;3.47;;;13.00;99.90;;;;;;5051481;28;20456;-76
2022/05/13 06:25:11;;;;;;;10.97;2.80;;;13.00;99.90;;;;;;5052276;28;20454;-77
2022/05/13 06:27:38;;;;;;;11.10;4.17;;;13.00;99.90;;;;;;5051415;28;20540;-76
2022/05/13 06:30:06;;;;;;;9.63;3.40;;;13.00;99.90;;;;;;5050010;28;20534;-76
2022/05/13 06:32:33;;;;;;;7.70;2.90;;;13.10;99.90;;;;;;5044914;28;20451;-76
2022/05/13 06:35:00;;;;;;;9.50;3.57;;;13.20;99.90;;;;;;5047058;28;20509;-77
2022/05/13 06:37:27;;;;;;;10.13;2.70;;;13.20;99.90;;;;;;5047764;28;20866;-77
2022/05/13 06:39:54;;;;;;;7.13;3.23;;;13.30;99.90;;;;;;5045189;28;20452;-77
2022/05/13 06:42:29;;;;;;;6.63;2.70;;;13.40;99.90;;;;;;5051098;28;20461;-78
2022/05/13 06:44:56;;;;;;;10.40;3.07;;;13.50;99.90;;;;;;5048871;28;20475;-76
2022/05/13 06:47:23;;;;;;;13.97;3.80;;;13.60;99.90;;;;;;5044610;28;20445;-78
2022/05/13 06:49:50;;;;;;;14.40;3.17;;;13.60;99.90;;;;;;5046189;28;20534;-76
2022/05/13 06:52:16;;;;;;;10.30;3.00;;;13.60;99.90;;;;;;5047140;28;20459;-76
2022/05/13 06:54:44;;;;;;;8.67;3.10;;;13.70;99.90;;;;;;5043595;28;20477;-76
2022/05/13 06:57:11;;;;;;;7.47;3.03;;;13.70;99.90;;;;;;5043638;28;20510;-78
2022/05/13 06:59:41;;;;;;;9.07;3.70;;;13.80;99.90;;;;;;5049149;28;20456;-75
2022/05/13 07:02:08;;;;;;;7.50;2.73;;;13.90;99.90;;;;;;5047147;28;20458;-78
2022/05/13 07:04:35;;;;;;;11.40;3.00;;;14.10;99.90;;;;;;5047753;28;20494;-81
2022/05/13 07:07:05;;;;;;;7.10;3.10;;;14.40;99.90;;;;;;5049442;28;20462;-79
2022/05/13 07:09:34;;;;;;;5.83;2.40;;;14.80;99.90;;;;;;5049570;28;20973;-78
2022/05/13 07:12:00;;;;;;;7.57;3.00;;;15.40;99.90;;;;;;5046942;28;20987;-81
2022/05/13 07:14:27;;;;;;;6.70;2.30;;;16.00;99.90;;;;;;5065681;28;20506;-81
2022/05/13 07:16:55;;;;;;;5.23;2.40;;;16.50;99.90;;;;;;5059767;28;20451;-81
2022/05/13 07:19:22;;;;;;;7.13;2.40;;;17.00;99.90;;;;;;5063066;28;20457;-80
2022/05/13 07:21:50;;;;;;;5.30;2.40;;;17.30;99.90;;;;;;5062281;28;20511;-78
2022/05/13 07:24:17;;;;;;;8.47;3.03;;;17.40;99.90;;;;;;5060624;28;20502;-80
2022/05/13 07:26:44;;;;;;;5.73;2.37;;;17.40;99.90;;;;;;5058042;28;20520;-77
2022/05/13 07:29:11;;;;;;;7.90;2.73;;;17.60;99.90;;;;;;5059114;28;20940;-79
2022/05/13 07:31:38;;;;;;;10.37;2.83;;;17.60;99.90;;;;;;5054992;28;20461;-77
2022/05/13 07:34:07;;;;;;;4.10;2.17;;;17.90;99.90;;;;;;5060558;28;20508;-80
2022/05/13 07:36:34;;;;;;;7.20;2.90;;;18.20;99.90;;;;;;5051818;28;20466;-79
2022/05/13 07:41:46;;;;;;;5.17;2.70;;;18.10;99.90;;;;;;5050535;28;20485;-79
2022/05/13 07:44:13;;;;;;;5.70;2.10;;;18.00;99.90;;;;;;5046525;28;20479;-78
2022/05/13 07:46:40;;;;;;;11.13;3.10;;;18.30;99.90;;;;;;5049081;28;20446;-76
2022/05/13 07:49:09;;;;;;;4.70;1.97;;;18.40;99.90;;;;;;5045607;28;20447;-79
2022/05/13 07:51:36;;;;;;;9.10;2.40;;;18.70;99.90;;;;;;5047134;28;20459;-78
2022/05/13 07:54:03;;;;;;;6.47;1.80;;;18.80;99.90;;;;;;5048158;28;20463;-78
2022/05/13 07:56:30;;;;;;;5.47;2.20;;;18.90;99.90;;;;;;5041782;28;20457;-78
2022/05/13 07:58:57;;;;;;;5.93;1.87;;;19.00;99.90;;;;;;5045265;28;20487;-76
2022/05/13 08:01:24;;;;;;;5.90;2.33;;;19.30;99.90;;;;;;5045991;28;20561;-77
2022/05/13 08:03:51;;;;;;;6.10;2.60;;;19.30;99.90;;;;;;5045751;28;20478;-76
2022/05/13 08:06:19;;;;;;;9.43;2.67;;;19.40;99.90;;;;;;5040986;28;20455;-79
2022/05/13 08:08:53;;;;;;;5.37;2.27;;;19.50;99.90;;;;;;5046397;28;20508;-77
2022/05/13 08:11:20;;;;;;;5.73;2.00;;;19.40;99.90;;;;;;5048543;28;21337;-77
2022/05/13 08:13:47;;;;;;;5.03;1.97;;;19.30;99.90;;;;;;5042991;28;20537;-78
2022/05/13 08:16:16;;;;;;;4.70;2.27;;;19.10;99.90;;;;;;5054069;28;20459;-78
2022/05/13 08:18:44;;;;;;;6.00;2.00;;;19.30;99.90;;;;;;5053037;28;20479;-76
2022/05/13 08:21:11;;;;;;;5.37;2.00;;;19.60;99.90;;;;;;5059991;28;20466;-79
2022/05/13 08:23:40;;;;;;;6.27;2.17;;;20.10;99.90;;;;;;5048532;28;20932;-77
2022/05/13 08:26:07;;;;;;;8.17;2.60;;;19.90;99.90;;;;;;5044184;28;20463;-78
2022/05/13 08:28:34;;;;;;;5.57;2.13;;;19.90;99.90;;;;;;5049866;28;20458;-77
2022/05/13 08:31:01;;;;;;;7.83;2.23;;;19.80;99.90;;;;;;5044986;28;20461;-79
2022/05/13 08:33:28;;;;;;;8.10;2.30;;;19.80;99.90;;;;;;5049297;28;20483;-77
2022/05/13 08:35:58;;;;;;;7.10;2.20;;;19.80;99.90;;;;;;5052077;28;20463;-78
2022/05/13 08:38:27;;;;;;;5.20;2.40;;;19.70;99.90;;;;;;5044058;28;20526;-77
2022/05/13 08:41:13;;;;;;;5.70;2.00;;;19.80;99.90;;;;;;5049183;28;20460;-78
2022/05/13 08:43:43;;;;;;;7.53;2.50;;;20.00;99.90;;;;;;5047005;28;20470;-76
2022/05/13 08:46:15;;;;;;;11.80;2.67;;;20.90;99.90;;;;;;5048377;28;20452;-77
2022/05/13 08:48:48;;;;;;;8.17;2.40;;;21.40;99.90;;;;;;5051019;28;20444;-77
2022/05/13 08:51:18;;;;;;;4.63;2.00;;;22.30;99.90;;;;;;5048452;28;20935;-78
2022/05/13 08:53:53;;;;;;;5.10;1.90;;;23.10;99.90;;;;;;5048309;28;20475;-79
2022/05/13 08:56:26;;;;;;;5.40;2.30;;;23.80;99.90;;;;;;5045610;28;20550;-79
2022/05/13 08:58:58;;;;;;;5.30;2.10;;;23.70;99.90;;;;;;5048108;28;20483;-78
2022/05/13 09:01:28;;;;;;;5.43;2.00;;;24.00;99.90;;;;;;5046487;28;20464;-77
2022/05/13 09:04:00;;;;;;;6.20;2.10;;;24.60;99.90;;;;;;5049446;28;20479;-77
2022/05/13 09:06:36;;;;;;;5.33;1.73;;;24.10;99.90;;;;;;5049668;28;20494;-77
2022/05/13 09:09:05;;;;;;;5.57;2.27;;;24.40;99.90;;;;;;5047854;28;20982;-78
2022/05/13 09:11:36;;;;;;;6.87;2.30;;;24.70;99.90;;;;;;5049840;28;20503;-77
2022/05/13 09:14:08;;;;;;;5.00;1.90;;;25.60;99.90;;;;;;5049343;28;20487;-79
2022/05/13 09:16:50;;;;;;;6.13;1.67;;;26.30;99.90;;;;;;5049826;28;20537;-77
2022/05/13 09:19:24;;;;;;;6.20;1.97;;;27.50;99.90;;;;;;5043148;28;20489;-79
2022/05/13 09:21:51;;;;;;;6.80;2.30;;;27.80;99.30;;;;;;5051390;28;20461;-77
2022/05/13 09:24:18;;;;;;;4.40;1.83;;;26.70;99.90;;;;;;5051440;28;20486;-76
2022/05/13 09:26:46;;;;;;;5.10;1.70;;;26.80;98.80;;;;;;5053384;28;20463;-79
2022/05/13 09:29:16;;;;;;;4.63;2.10;;;26.90;97.00;;;;;;5054261;28;20546;-79
2022/05/13 09:31:46;;;;;;;8.33;2.60;;;26.00;95.80;;;;;;5054713;28;20761;-77
2022/05/13 09:34:30;;;;;;;6.47;2.97;;;25.10;97.40;;;;;;5059934;28;20542;-79
2022/05/13 09:37:05;;;;;;;3.40;1.77;;;26.20;98.00;;;;;;5044467;28;21045;-78
2022/05/13 09:39:36;;;;;;;6.53;2.03;;;26.40;95.60;;;;;;5051967;28;20479;-78
2022/05/13 09:42:19;;;;;;;5.00;2.30;;;25.90;95.00;;;;;;5051220;28;20959;-77
2022/05/13 09:44:47;;;;;;;7.83;1.80;;;25.70;95.10;;;;;;5051538;28;20483;-76
2022/05/13 09:47:17;;;;;;;4.67;2.10;;;25.30;95.40;;;;;;5057514;28;20452;-79
2022/05/13 09:49:47;;;;;;;16.27;2.33;;;24.90;95.50;;;;;;5057805;28;20538;-78
2022/05/13 09:52:17;;;;;;;4.97;1.50;;;24.40;95.50;;;;;;5058445;28;20460;-77
2022/05/13 09:54:46;;;;;;;6.10;1.80;;;24.70;97.00;;;;;;5058342;28;20529;-80
2022/05/13 09:57:21;;;;;;;5.23;2.80;;;26.30;93.30;;;;;;5056434;28;20515;-77
2022/05/13 09:59:55;;;;;;;8.17;2.07;;;26.20;94.10;;;;;;5054114;28;20493;-79
2022/05/13 10:02:26;;;;;;;4.30;1.90;;;27.80;95.10;;;;;;5053720;28;20486;-78
2022/05/13 10:04:55;;;;;;;7.00;1.53;;;30.10;92.10;;;;;;5054407;28;21011;-78
2022/05/13 10:07:24;;;;;;;4.00;1.40;;;31.10;89.00;;;;;;5053723;28;20460;-78
2022/05/13 10:15:31;;;;;;;6.50;1.60;;;30.30;99.90;;;;;;5053940;28;20432;-76
2022/05/13 10:18:08;;;;;;;7.93;1.47;;;28.90;99.90;;;;;;5054195;28;20490;-78
2022/05/13 10:20:38;;;;;;;3.20;1.33;;;27.00;99.90;;;;;;5052975;28;20539;-79
2022/05/13 10:23:11;;;;;;;5.13;1.50;;;25.10;99.90;;;;;;5052566;28;21011;-76
2022/05/13 10:25:52;;;;;;;4.90;1.50;;;23.80;99.90;;;;;;5048575;28;20944;-77
2022/05/13 10:28:24;;;;;;;4.73;1.60;;;23.40;99.90;;;;;;5044164;28;20453;-77
2022/05/13 10:30:57;;;;;;;5.03;1.70;;;23.90;99.90;;;;;;5048501;28;20448;-75
2022/05/13 10:33:30;;;;;;;5.00;1.67;;;23.90;99.90;;;;;;5042531;28;20567;-77
2022/05/13 10:36:00;;;;;;;8.77;2.90;;;23.30;99.90;;;;;;5042571;28;20850;-78
2022/05/13 10:38:31;;;;;;;4.27;1.47;;;22.60;99.90;;;;;;5052572;28;20494;-76
2022/05/13 10:41:07;;;;;;;6.30;1.90;;;22.90;99.90;;;;;;5037040;28;20449;-77
2022/05/13 10:43:41;;;;;;;5.67;1.47;;;24.40;99.90;;;;;;5045077;28;20501;-77
2022/05/13 10:46:23;;;;;;;4.60;1.60;;;25.80;99.90;;;;;;5051755;28;20460;-78
2022/05/13 10:48:52;;;;;;;5.27;2.00;;;27.00;99.90;;;;;;5045250;28;20471;-78
2022/05/13 10:51:24;;;;;;;3.00;1.20;;;28.10;99.90;;;;;;5052408;28;20535;-75
2022/05/13 10:54:09;;;;;;;7.20;1.77;;;27.60;99.90;;;;;;5053683;28;20480;-79
2022/05/13 10:56:42;;;;;;;5.83;1.60;;;26.40;99.90;;;;;;5049443;28;20460;-79
2022/05/13 10:59:27;;;;;;;4.17;1.43;;;25.90;99.90;;;;;;5053080;28;20479;-83
2022/05/13 11:02:08;;;;;;;7.40;1.87;;;26.20;99.90;;;;;;5046342;28;21002;-79
2022/05/13 11:04:46;;;;;;;3.97;1.50;;;26.40;99.90;;;;;;5043289;28;20471;-80
2022/05/13 11:07:21;;;;;;;7.47;1.57;;;26.50;99.90;;;;;;5046731;28;20837;-79
2022/05/13 11:09:56;;;;;;;5.97;1.83;;;26.50;99.90;;;;;;5049967;28;20459;-79
2022/05/13 11:12:31;;;;;;;6.10;2.17;;;25.90;99.90;;;;;;5049234;28;20440;-80
2022/05/13 11:15:13;;;;;;;4.30;1.80;;;25.10;99.90;;;;;;5049045;28;20483;-79
2022/05/13 11:17:47;;;;;;;8.57;2.07;;;24.10;99.90;;;;;;5052787;28;20454;-79
2022/05/13 11:20:26;;;;;;;5.93;1.53;;;23.80;99.90;;;;;;5050364;28;20496;-77
2022/05/13 11:23:05;;;;;;;4.68;1.70;;;25.80;99.90;;;;;;5050007;28;20514;-77
2022/05/13 11:25:56;;;;;;;5.17;1.90;;;26.70;99.90;;;;;;5049416;28;20205;-77
2022/05/13 11:28:56;;;;;;;5.47;2.40;;;27.40;99.90;;;;;;5046117;28;20479;-78
2022/05/13 11:31:40;;;;;;;4.23;1.60;;;29.10;99.90;;;;;;5040666;28;20444;-78
2022/05/13 11:34:19;;;;;;;6.30;1.97;;;30.80;99.90;;;;;;5052449;28;20472;-75
2022/05/13 11:36:53;;;;;;;6.00;1.77;;;32.70;99.90;;;;;;5054709;28;20489;-80
2022/05/13 11:39:56;;;;;;;6.83;2.30;;;33.20;99.90;;;;;;5049250;28;20514;-81
2022/05/13 11:43:18;;;;;;;5.33;1.97;;;33.60;99.90;;;;;;5050308;28;20454;-80
2022/05/13 11:45:35;;;;;;;4.47;1.57;;;34.80;99.90;;;;;;5053998;28;20444;-80
2022/05/13 11:48:22;;;;;;;5.00;1.93;;;34.70;99.90;;;;;;5054023;28;20458;-79
2022/05/13 11:50:50;;;;;;;4.00;1.53;;;33.70;99.90;;;;;;5047817;28;20491;-80
2022/05/13 11:53:48;;;;;;;4.77;2.03;;;33.90;99.90;;;;;;5054923;28;20472;-80
2022/05/13 11:56:30;;;;;;;4.20;1.90;;;32.50;99.90;;;;;;5052061;28;20543;-79
2022/05/13 11:58:58;;;;;;;6.70;2.03;;;31.40;99.90;;;;;;5051414;28;20483;-79
2022/05/13 12:02:08;;;;;;;5.47;1.70;;;30.20;99.90;;;;;;5044807;28;20546;-79
2022/05/13 12:04:40;;;;;;;5.40;2.00;;;29.20;99.90;;;;;;5044884;28;20472;-78
2022/05/13 12:07:29;;;;;;;5.37;2.07;;;28.20;99.90;;;;;;5044772;28;20458;-80
2022/05/13 12:09:58;;;;;;;5.17;2.30;;;27.20;99.90;;;;;;5050608;28;20515;-79
2022/05/13 12:12:44;;;;;;;8.43;2.23;;;26.50;99.90;;;;;;5048458;28;20567;-78
2022/05/13 12:15:21;;;;;;;4.27;2.70;;;26.10;99.90;;;;;;5044805;28;20518;-79
2022/05/13 12:17:58;;;;;;;5.23;2.33;;;26.00;99.90;;;;;;5047180;28;20454;-79
2022/05/13 12:20:41;;;;;;;5.53;2.20;;;28.00;99.90;;;;;;5052146;28;20530;-79
2022/05/13 12:23:15;;;;;;;6.43;2.20;;;29.10;99.90;;;;;;5059864;28;20473;-78
2022/05/13 12:25:52;;;;;;;6.90;3.43;;;27.90;99.90;;;;;;5059468;28;20447;-79
2022/05/13 12:28:39;;;;;;;4.70;2.03;;;26.80;99.90;;;;;;5055411;28;20467;-79
2022/05/13 12:31:19;;;;;;;3.93;2.37;;;26.50;99.90;;;;;;5052101;28;20443;-79
2022/05/13 12:37:33;;;;;;;3.77;2.03;;;28.30;99.90;;;;;;5051975;28;20475;-77
2022/05/13 12:39:44;;;;;;;4.73;1.80;;;28.70;99.90;;;;;;5051215;28;20633;-78
2022/05/13 12:42:13;;;;;;;3.57;2.10;;;28.50;99.90;;;;;;5052248;28;20446;-78
2022/05/13 12:44:57;;;;;;;4.90;2.30;;;27.90;99.90;;;;;;5053330;28;20478;-77
2022/05/13 12:47:28;;;;;;;3.47;2.23;;;27.10;99.90;;;;;;5053296;28;20992;-79
2022/05/13 12:50:02;;;;;;;7.53;2.70;;;26.30;99.90;;;;;;5052510;28;21011;-79
2022/05/13 12:52:41;;;;;;;6.67;2.50;;;26.10;99.90;;;;;;5052888;28;20463;-79
2022/05/13 12:55:12;;;;;;;5.50;2.53;;;28.70;99.90;;;;;;5043226;28;20446;-79
2022/05/13 12:57:43;;;;;;;5.33;1.70;;;29.30;99.90;;;;;;5053519;28;20444;-79
2022/05/13 13:00:13;;;;;;;5.00;2.40;;;29.00;99.90;;;;;;5053770;28;20574;-79
2022/05/13 13:02:43;;;;;;;7.53;2.60;;;29.30;99.90;;;;;;5055227;28;20455;-78
2022/05/13 13:05:15;;;;;;;6.23;3.17;;;29.00;99.90;;;;;;5064062;28;20467;-80
2022/05/13 13:07:44;;;;;;;4.50;2.53;;;27.90;99.90;;;;;;5061353;28;20463;-80
2022/05/13 13:10:16;;;;;;;8.53;3.90;;;27.60;99.90;;;;;;5059018;28;20450;-77
2022/05/13 13:12:51;;;;;;;5.30;2.50;;;26.80;99.90;;;;;;5061447;28;20519;-78
2022/05/13 13:15:23;;;;;;;3.40;2.40;;;26.50;99.90;;;;;;5065926;28;20466;-80
2022/05/13 13:17:55;;;;;;;5.70;2.97;;;26.20;99.90;;;;;;5062528;28;20492;-77
2022/05/13 13:20:24;;;;;;;5.63;2.80;;;25.90;99.90;;;;;;5059987;28;20471;-79
2022/05/13 13:22:55;;;;;;;8.17;2.70;;;26.70;99.90;;;;;;5059655;28;20498;-79
2022/05/13 13:25:27;;;;;;;6.77;2.43;;;27.90;99.90;;;;;;5060513;28;20452;-80
2022/05/13 13:27:58;;;;;;;3.80;2.23;;;29.70;99.90;;;;;;5058139;28;20491;-80